sensor_id;sensor_type;location;lat;lon;timestamp;temperature;humidity
20728;DHT22;10525;50.154;8.198;2023-03-13T00:02:19;7.80;99.90
20728;DHT22;10525;50.154;8.198;2023-03-13T00:04:46;7.90;99.90
20728;DHT22;10525;50.154;8.198;2023-03-13T00:07:12;7.90;99.90
20728;DHT22;10525;50.154;8.198;2023-03-13T00:09:40;7.90;99.90
20728;DHT22;10525;50.154;8.198;2023-03-13T00:12:08;7.90;99.90
20728;DHT22;10525;50.154;8.198;2023-03-13T00:14:35;7.90;99.90
20728;DHT22;10525;50.154;8.198;2023-03-13T00:17:02;8.00;99.90
20728;DHT22;10525;50.154;8.198;2023-03-13T00:19:28;8.00;99.90
20728;DHT22;10525;50.154;8.198;2023-03-13T00:21:55;8.10;99.90
20728;DHT22;10525;50.154;8.198;2023-03-13T00:24:21;8.10;99.90
20728;DHT22;10525;50.154;8.198;2023-03-13T00:26:48;8.20;99.90
20728;DHT22;10525;50.154;8.198;2023-03-13T00:29:16;8.20;99.90
20728;DHT22;10525;50.154;8.198;2023-03-13T00:31:43;8.20;99.90
20728;DHT22;10525;50.154;8.198;2023-03-13T00:34:09;8.20;99.90
20728;DHT22;10525;50.154;8.198;2023-03-13T00:36:36;8.30;99.90
20728;DHT22;10525;50.154;8.198;2023-03-13T00:39:04;8.30;99.90
20728;DHT22;10525;50.154;8.198;2023-03-13T00:41:31;8.30;99.90
20728;DHT22;10525;50.154;8.198;2023-03-13T00:43:58;8.30;99.90
20728;DHT22;10525;50.154;8.198;2023-03-13T00:46:27;8.20;99.90
20728;DHT22;10525;50.154;8.198;2023-03-13T00:48:55;8.20;99.90
20728;DHT22;10525;50.154;8.198;2023-03-13T00:51:22;8.30;99.90
20728;DHT22;10525;50.154;8.198;2023-03-13T00:53:51;8.10;99.90
20728;DHT22;10525;50.154;8.198;2023-03-13T00:56:19;8.10;99.90
20728;DHT22;10525;50.154;8.198;2023-03-13T00:58:47;8.00;99.90
20728;DHT22;10525;50.154;8.198;2023-03-13T01:01:16;7.90;99.90
20728;DHT22;10525;50.154;8.198;2023-03-13T01:03:47;7.90;99.90
20728;DHT22;10525;50.154;8.198;2023-03-13T01:06:15;7.90;99.90
20728;DHT22;10525;50.154;8.198;2023-03-13T01:08:42;7.80;99.90
20728;DHT22;10525;50.154;8.198;2023-03-13T01:11:11;7.80;99.90
20728;DHT22;10525;50.154;8.198;2023-03-13T01:13:38;7.80;99.90
20728;DHT22;10525;50.154;8.198;2023-03-13T01:16:07;7.80;99.90
20728;DHT22;10525;50.154;8.198;2023-03-13T01:18:34;7.70;99.90
20728;DHT22;10525;50.154;8.198;2023-03-13T01:21:03;7.80;99.90
20728;DHT22;10525;50.154;8.198;2023-03-13T01:23:30;7.80;99.90
20728;DHT22;10525;50.154;8.198;2023-03-13T01:25:58;7.80;99.90
20728;DHT22;10525;50.154;8.198;2023-03-13T01:28:26;7.70;99.90
20728;DHT22;10525;50.154;8.198;2023-03-13T01:30:52;7.80;99.90
20728;DHT22;10525;50.154;8.198;2023-03-13T01:33:19;7.90;99.90
20728;DHT22;10525;50.154;8.198;2023-03-13T01:35:46;7.90;99.90
20728;DHT22;10525;50.154;8.198;2023-03-13T01:38:14;7.90;99.90
20728;DHT22;10525;50.154;8.198;2023-03-13T01:40:42;7.90;99.90
20728;DHT22;10525;50.154;8.198;2023-03-13T01:43:18;8.00;99.90
20728;DHT22;10525;50.154;8.198;2023-03-13T01:45:57;8.00;99.90
20728;DHT22;10525;50.154;8.198;2023-03-13T01:48:28;8.00;99.90
20728;DHT22;10525;50.154;8.198;2023-03-13T01:50:59;8.10;99.90
20728;DHT22;10525;50.154;8.198;2023-03-13T01:53:30;8.20;99.90
20728;DHT22;10525;50.154;8.198;2023-03-13T01:55:59;8.20;99.90
20728;DHT22;10525;50.154;8.198;2023-03-13T01:58:27;8.20;99.90
20728;DHT22;10525;50.154;8.198;2023-03-13T02:00:54;8.20;99.90
20728;DHT22;10525;50.154;8.198;2023-03-13T02:03:21;8.30;99.90
20728;DHT22;10525;50.154;8.198;2023-03-13T02:05:49;8.30;99.90
20728;DHT22;10525;50.154;8.198;2023-03-13T02:08:19;8.30;99.90
20728;DHT22;10525;50.154;8.198;2023-03-13T02:10:52;8.30;99.90
20728;DHT22;10525;50.154;8.198;2023-03-13T02:13:19;8.30;99.90
20728;DHT22;10525;50.154;8.198;2023-03-13T02:15:47;8.30;99.90
20728;DHT22;10525;50.154;8.198;2023-03-13T02:18:14;8.30;99.90
20728;DHT22;10525;50.154;8.198;2023-03-13T02:20:41;8.40;99.90
20728;DHT22;10525;50.154;8.198;2023-03-13T02:23:14;8.40;99.90
20728;DHT22;10525;50.154;8.198;2023-03-13T02:25:46;8.40;99.90
20728;DHT22;10525;50.154;8.198;2023-03-13T02:28:16;8.30;99.90
20728;DHT22;10525;50.154;8.198;2023-03-13T02:30:45;8.30;99.90
20728;DHT22;10525;50.154;8.198;2023-03-13T02:33:13;8.40;99.90
20728;DHT22;10525;50.154;8.198;2023-03-13T02:35:41;8.40;99.90
20728;DHT22;10525;50.154;8.198;2023-03-13T02:38:15;8.40;99.90
20728;DHT22;10525;50.154;8.198;2023-03-13T02:40:46;8.40;99.90
20728;DHT22;10525;50.154;8.198;2023-03-13T02:43:17;8.40;99.90
20728;DHT22;10525;50.154;8.198;2023-03-13T02:46:03;8.40;99.90
20728;DHT22;10525;50.154;8.198;2023-03-13T02:48:32;8.40;99.90
20728;DHT22;10525;50.154;8.198;2023-03-13T02:51:03;8.30;99.90
20728;DHT22;10525;50.154;8.198;2023-03-13T02:53:31;8.40;99.90
20728;DHT22;10525;50.154;8.198;2023-03-13T02:55:59;8.40;99.90
20728;DHT22;10525;50.154;8.198;2023-03-13T02:58:26;8.40;99.90
20728;DHT22;10525;50.154;8.198;2023-03-13T03:00:53;8.50;99.90
20728;DHT22;10525;50.154;8.198;2023-03-13T03:03:19;8.50;99.90
20728;DHT22;10525;50.154;8.198;2023-03-13T03:05:46;8.50;99.90
20728;DHT22;10525;50.154;8.198;2023-03-13T03:08:13;8.50;99.90
20728;DHT22;10525;50.154;8.198;2023-03-13T03:10:39;8.50;99.90
20728;DHT22;10525;50.154;8.198;2023-03-13T03:13:07;8.60;99.90
20728;DHT22;10525;50.154;8.198;2023-03-13T03:15:34;8.50;99.90
20728;DHT22;10525;50.154;8.198;2023-03-13T03:18:01;8.50;99.90
20728;DHT22;10525;50.154;8.198;2023-03-13T03:20:28;8.50;99.90
20728;DHT22;10525;50.154;8.198;2023-03-13T03:22:54;8.50;99.90
20728;DHT22;10525;50.154;8.198;2023-03-13T03:25:21;8.50;99.90
20728;DHT22;10525;50.154;8.198;2023-03-13T03:27:48;8.50;99.90
20728;DHT22;10525;50.154;8.198;2023-03-13T03:30:16;8.50;99.90
20728;DHT22;10525;50.154;8.198;2023-03-13T03:32:43;8.40;99.90
20728;DHT22;10525;50.154;8.198;2023-03-13T03:35:09;8.40;99.90
20728;DHT22;10525;50.154;8.198;2023-03-13T03:37:36;8.50;99.90
20728;DHT22;10525;50.154;8.198;2023-03-13T03:40:03;8.40;99.90
20728;DHT22;10525;50.154;8.198;2023-03-13T03:42:31;8.50;99.90
20728;DHT22;10525;50.154;8.198;2023-03-13T03:44:57;8.50;99.90
20728;DHT22;10525;50.154;8.198;2023-03-13T03:47:25;8.50;99.90
20728;DHT22;10525;50.154;8.198;2023-03-13T03:49:52;8.50;99.90
20728;DHT22;10525;50.154;8.198;2023-03-13T03:52:19;8.60;99.90
20728;DHT22;10525;50.154;8.198;2023-03-13T03:54:45;8.60;99.90
20728;DHT22;10525;50.154;8.198;2023-03-13T03:57:12;8.50;99.90
20728;DHT22;10525;50.154;8.198;2023-03-13T03:59:39;8.60;99.90
20728;DHT22;10525;50.154;8.198;2023-03-13T04:02:05;8.60;99.90
20728;DHT22;10525;50.154;8.198;2023-03-13T04:04:34;8.60;99.90
20728;DHT22;10525;50.154;8.198;2023-03-13T04:07:01;8.60;99.90
20728;DHT22;10525;50.154;8.198;2023-03-13T04:09:28;8.60;99.90
20728;DHT22;10525;50.154;8.198;2023-03-13T04:11:54;8.60;99.90
20728;DHT22;10525;50.154;8.198;2023-03-13T04:14:21;8.70;99.90
20728;DHT22;10525;50.154;8.198;2023-03-13T04:16:48;8.70;99.90
20728;DHT22;10525;50.154;8.198;2023-03-13T04:19:14;8.70;99.90
20728;DHT22;10525;50.154;8.198;2023-03-13T04:21:42;8.70;99.90
20728;DHT22;10525;50.154;8.198;2023-03-13T04:24:09;8.70;99.90
20728;DHT22;10525;50.154;8.198;2023-03-13T04:26:36;8.80;99.90
20728;DHT22;10525;50.154;8.198;2023-03-13T04:29:02;8.80;99.90
20728;DHT22;10525;50.154;8.198;2023-03-13T04:31:30;8.80;99.90
20728;DHT22;10525;50.154;8.198;2023-03-13T04:33:57;8.80;99.90
20728;DHT22;10525;50.154;8.198;2023-03-13T04:36:24;8.80;99.90
20728;DHT22;10525;50.154;8.198;2023-03-13T04:38:51;8.80;99.90
20728;DHT22;10525;50.154;8.198;2023-03-13T04:41:18;8.90;99.90
20728;DHT22;10525;50.154;8.198;2023-03-13T04:43:45;8.80;99.90
20728;DHT22;10525;50.154;8.198;2023-03-13T04:46:11;8.90;99.90
20728;DHT22;10525;50.154;8.198;2023-03-13T04:48:38;8.80;99.90
20728;DHT22;10525;50.154;8.198;2023-03-13T04:51:05;8.80;99.90
20728;DHT22;10525;50.154;8.198;2023-03-13T04:53:31;8.90;99.90
20728;DHT22;10525;50.154;8.198;2023-03-13T04:55:59;8.80;99.90
20728;DHT22;10525;50.154;8.198;2023-03-13T04:58:26;8.80;99.90
20728;DHT22;10525;50.154;8.198;2023-03-13T05:00:53;8.90;99.90
20728;DHT22;10525;50.154;8.198;2023-03-13T05:03:21;8.90;99.90
20728;DHT22;10525;50.154;8.198;2023-03-13T05:05:47;9.00;99.90
20728;DHT22;10525;50.154;8.198;2023-03-13T05:08:14;9.10;99.90
20728;DHT22;10525;50.154;8.198;2023-03-13T05:10:41;9.00;99.90
20728;DHT22;10525;50.154;8.198;2023-03-13T05:13:09;9.10;99.90
20728;DHT22;10525;50.154;8.198;2023-03-13T05:15:36;9.10;99.90
20728;DHT22;10525;50.154;8.198;2023-03-13T05:18:02;9.20;99.90
20728;DHT22;10525;50.154;8.198;2023-03-13T05:20:29;9.20;99.90
20728;DHT22;10525;50.154;8.198;2023-03-13T05:22:56;9.20;99.90
20728;DHT22;10525;50.154;8.198;2023-03-13T05:25:22;9.30;99.90
20728;DHT22;10525;50.154;8.198;2023-03-13T05:27:49;9.30;99.90
20728;DHT22;10525;50.154;8.198;2023-03-13T05:30:17;9.30;99.90
20728;DHT22;10525;50.154;8.198;2023-03-13T05:32:44;9.30;99.90
20728;DHT22;10525;50.154;8.198;2023-03-13T05:35:11;9.30;99.90
20728;DHT22;10525;50.154;8.198;2023-03-13T05:37:38;9.30;99.90
20728;DHT22;10525;50.154;8.198;2023-03-13T05:40:06;9.30;99.90
20728;DHT22;10525;50.154;8.198;2023-03-13T05:42:33;9.30;99.90
20728;DHT22;10525;50.154;8.198;2023-03-13T05:45:00;9.30;99.90
20728;DHT22;10525;50.154;8.198;2023-03-13T05:47:28;9.30;99.90
20728;DHT22;10525;50.154;8.198;2023-03-13T05:49:54;9.30;99.90
20728;DHT22;10525;50.154;8.198;2023-03-13T05:52:21;9.40;99.90
20728;DHT22;10525;50.154;8.198;2023-03-13T05:54:48;9.50;99.90
20728;DHT22;10525;50.154;8.198;2023-03-13T05:57:14;9.50;99.90
20728;DHT22;10525;50.154;8.198;2023-03-13T05:59:41;9.50;99.90
20728;DHT22;10525;50.154;8.198;2023-03-13T06:02:08;9.50;99.90
20728;DHT22;10525;50.154;8.198;2023-03-13T06:04:36;9.60;99.90
20728;DHT22;10525;50.154;8.198;2023-03-13T06:07:02;9.60;99.90
20728;DHT22;10525;50.154;8.198;2023-03-13T06:09:29;9.60;99.90
20728;DHT22;10525;50.154;8.198;2023-03-13T06:11:56;9.70;99.90
20728;DHT22;10525;50.154;8.198;2023-03-13T06:14:23;9.70;99.90
20728;DHT22;10525;50.154;8.198;2023-03-13T06:16:49;9.70;99.90
20728;DHT22;10525;50.154;8.198;2023-03-13T06:19:16;9.70;99.90
20728;DHT22;10525;50.154;8.198;2023-03-13T06:21:45;9.70;99.90
20728;DHT22;10525;50.154;8.198;2023-03-13T06:24:11;9.70;99.90
20728;DHT22;10525;50.154;8.198;2023-03-13T06:26:38;9.70;99.90
20728;DHT22;10525;50.154;8.198;2023-03-13T06:29:05;9.70;99.90
20728;DHT22;10525;50.154;8.198;2023-03-13T06:31:31;9.70;99.90
20728;DHT22;10525;50.154;8.198;2023-03-13T06:33:58;9.70;99.90
20728;DHT22;10525;50.154;8.198;2023-03-13T06:36:25;9.70;99.90
20728;DHT22;10525;50.154;8.198;2023-03-13T06:38:53;9.80;99.90
20728;DHT22;10525;50.154;8.198;2023-03-13T06:41:19;9.90;99.90
20728;DHT22;10525;50.154;8.198;2023-03-13T06:43:46;9.90;99.90
20728;DHT22;10525;50.154;8.198;2023-03-13T06:46:18;10.00;99.90
20728;DHT22;10525;50.154;8.198;2023-03-13T06:48:46;10.00;99.90
20728;DHT22;10525;50.154;8.198;2023-03-13T06:51:14;10.10;99.90
20728;DHT22;10525;50.154;8.198;2023-03-13T06:53:41;10.20;99.90
20728;DHT22;10525;50.154;8.198;2023-03-13T06:56:10;10.30;99.90
20728;DHT22;10525;50.154;8.198;2023-03-13T06:58:37;10.30;99.90
20728;DHT22;10525;50.154;8.198;2023-03-13T07:01:05;10.40;99.90
20728;DHT22;10525;50.154;8.198;2023-03-13T07:03:33;10.50;99.90
20728;DHT22;10525;50.154;8.198;2023-03-13T07:05:59;10.50;99.90
20728;DHT22;10525;50.154;8.198;2023-03-13T07:08:26;10.50;99.90
20728;DHT22;10525;50.154;8.198;2023-03-13T07:10:57;10.60;99.90
20728;DHT22;10525;50.154;8.198;2023-03-13T07:13:26;10.50;99.90
20728;DHT22;10525;50.154;8.198;2023-03-13T07:15:52;10.60;99.90
20728;DHT22;10525;50.154;8.198;2023-03-13T07:18:20;10.70;99.90
20728;DHT22;10525;50.154;8.198;2023-03-13T07:20:52;10.80;99.90
20728;DHT22;10525;50.154;8.198;2023-03-13T07:23:19;10.90;99.90
20728;DHT22;10525;50.154;8.198;2023-03-13T07:25:52;10.90;99.90
20728;DHT22;10525;50.154;8.198;2023-03-13T07:28:19;11.00;99.90
20728;DHT22;10525;50.154;8.198;2023-03-13T07:30:47;11.10;99.90
20728;DHT22;10525;50.154;8.198;2023-03-13T07:33:17;11.20;99.90
20728;DHT22;10525;50.154;8.198;2023-03-13T07:35:47;11.20;99.90
20728;DHT22;10525;50.154;8.198;2023-03-13T07:38:14;11.30;99.90
20728;DHT22;10525;50.154;8.198;2023-03-13T07:40:47;11.30;99.90
20728;DHT22;10525;50.154;8.198;2023-03-13T07:43:14;11.30;99.90
20728;DHT22;10525;50.154;8.198;2023-03-13T07:45:50;11.40;99.90
20728;DHT22;10525;50.154;8.198;2023-03-13T07:48:17;11.50;99.90
20728;DHT22;10525;50.154;8.198;2023-03-13T07:50:44;11.50;99.90
20728;DHT22;10525;50.154;8.198;2023-03-13T07:53:11;11.50;99.90
20728;DHT22;10525;50.154;8.198;2023-03-13T07:55:38;11.60;99.90
20728;DHT22;10525;50.154;8.198;2023-03-13T07:58:04;11.60;99.90
20728;DHT22;10525;50.154;8.198;2023-03-13T08:00:31;11.70;99.90
20728;DHT22;10525;50.154;8.198;2023-03-13T08:02:59;11.70;99.90
20728;DHT22;10525;50.154;8.198;2023-03-13T08:05:26;11.70;99.90
20728;DHT22;10525;50.154;8.198;2023-03-13T08:07:52;11.80;99.90
20728;DHT22;10525;50.154;8.198;2023-03-13T08:10:19;11.80;99.90
20728;DHT22;10525;50.154;8.198;2023-03-13T08:12:46;11.90;99.90
20728;DHT22;10525;50.154;8.198;2023-03-13T08:15:12;12.00;99.90
20728;DHT22;10525;50.154;8.198;2023-03-13T08:17:39;12.00;99.90
20728;DHT22;10525;50.154;8.198;2023-03-13T08:20:08;12.00;99.90
20728;DHT22;10525;50.154;8.198;2023-03-13T08:22:35;12.10;99.90
20728;DHT22;10525;50.154;8.198;2023-03-13T08:25:02;12.00;99.90
20728;DHT22;10525;50.154;8.198;2023-03-13T08:27:29;12.00;99.90
20728;DHT22;10525;50.154;8.198;2023-03-13T08:29:56;12.10;99.90
20728;DHT22;10525;50.154;8.198;2023-03-13T08:32:22;12.00;99.90
20728;DHT22;10525;50.154;8.198;2023-03-13T08:34:49;12.00;99.90
20728;DHT22;10525;50.154;8.198;2023-03-13T08:37:17;12.00;99.90
20728;DHT22;10525;50.154;8.198;2023-03-13T08:39:44;12.00;99.90
20728;DHT22;10525;50.154;8.198;2023-03-13T08:42:12;12.00;99.90
20728;DHT22;10525;50.154;8.198;2023-03-13T08:44:39;12.00;99.90
20728;DHT22;10525;50.154;8.198;2023-03-13T08:47:07;12.00;99.90
20728;DHT22;10525;50.154;8.198;2023-03-13T08:49:34;12.00;99.90
20728;DHT22;10525;50.154;8.198;2023-03-13T08:52:00;12.00;99.90
20728;DHT22;10525;50.154;8.198;2023-03-13T08:54:30;12.10;99.90
20728;DHT22;10525;50.154;8.198;2023-03-13T08:56:57;12.10;99.90
20728;DHT22;10525;50.154;8.198;2023-03-13T08:59:24;12.10;99.90
20728;DHT22;10525;50.154;8.198;2023-03-13T09:01:51;12.10;99.90
20728;DHT22;10525;50.154;8.198;2023-03-13T09:04:18;12.10;99.90
20728;DHT22;10525;50.154;8.198;2023-03-13T09:06:44;12.10;99.90
20728;DHT22;10525;50.154;8.198;2023-03-13T09:09:12;12.00;99.90
20728;DHT22;10525;50.154;8.198;2023-03-13T09:11:40;12.00;99.90
20728;DHT22;10525;50.154;8.198;2023-03-13T09:14:07;11.80;99.90
20728;DHT22;10525;50.154;8.198;2023-03-13T09:16:35;11.80;99.90
20728;DHT22;10525;50.154;8.198;2023-03-13T09:19:01;11.80;99.90
20728;DHT22;10525;50.154;8.198;2023-03-13T09:21:30;11.70;99.90
20728;DHT22;10525;50.154;8.198;2023-03-13T09:23:57;11.80;99.90
20728;DHT22;10525;50.154;8.198;2023-03-13T09:26:25;11.80;99.90
20728;DHT22;10525;50.154;8.198;2023-03-13T09:28:53;11.80;99.90
20728;DHT22;10525;50.154;8.198;2023-03-13T09:31:22;12.00;99.90
20728;DHT22;10525;50.154;8.198;2023-03-13T09:33:49;12.00;99.90
20728;DHT22;10525;50.154;8.198;2023-03-13T09:36:17;12.10;99.90
20728;DHT22;10525;50.154;8.198;2023-03-13T09:38:45;12.10;99.90
20728;DHT22;10525;50.154;8.198;2023-03-13T09:41:21;12.10;99.90
20728;DHT22;10525;50.154;8.198;2023-03-13T09:43:52;12.00;99.90
20728;DHT22;10525;50.154;8.198;2023-03-13T09:46:25;11.90;99.90
20728;DHT22;10525;50.154;8.198;2023-03-13T09:48:56;11.90;99.90
20728;DHT22;10525;50.154;8.198;2023-03-13T09:51:26;11.90;99.90
20728;DHT22;10525;50.154;8.198;2023-03-13T09:53:56;11.90;99.90
20728;DHT22;10525;50.154;8.198;2023-03-13T09:56:28;11.90;99.90
20728;DHT22;10525;50.154;8.198;2023-03-13T09:58:58;11.90;99.90
20728;DHT22;10525;50.154;8.198;2023-03-13T10:01:29;11.80;99.90
20728;DHT22;10525;50.154;8.198;2023-03-13T10:04:04;11.70;99.90
20728;DHT22;10525;50.154;8.198;2023-03-13T10:06:34;11.70;99.90
20728;DHT22;10525;50.154;8.198;2023-03-13T10:09:13;11.80;99.90
20728;DHT22;10525;50.154;8.198;2023-03-13T10:11:44;11.80;99.90
20728;DHT22;10525;50.154;8.198;2023-03-13T10:14:16;11.90;99.90
20728;DHT22;10525;50.154;8.198;2023-03-13T10:16:48;11.90;99.90
20728;DHT22;10525;50.154;8.198;2023-03-13T10:19:17;11.90;99.90
20728;DHT22;10525;50.154;8.198;2023-03-13T10:21:48;11.80;99.90
20728;DHT22;10525;50.154;8.198;2023-03-13T10:24:22;11.90;99.90
20728;DHT22;10525;50.154;8.198;2023-03-13T10:26:55;12.00;99.90
20728;DHT22;10525;50.154;8.198;2023-03-13T10:29:24;12.00;99.90
20728;DHT22;10525;50.154;8.198;2023-03-13T10:31:58;12.00;99.90
20728;DHT22;10525;50.154;8.198;2023-03-13T10:34:25;12.00;99.90
20728;DHT22;10525;50.154;8.198;2023-03-13T10:36:57;11.90;99.90
20728;DHT22;10525;50.154;8.198;2023-03-13T10:39:26;11.90;99.90
20728;DHT22;10525;50.154;8.198;2023-03-13T10:41:57;12.00;99.90
20728;DHT22;10525;50.154;8.198;2023-03-13T10:44:30;12.00;99.90
20728;DHT22;10525;50.154;8.198;2023-03-13T10:47:00;11.90;99.90
20728;DHT22;10525;50.154;8.198;2023-03-13T10:49:27;11.90;99.90
20728;DHT22;10525;50.154;8.198;2023-03-13T10:51:57;11.90;99.90
20728;DHT22;10525;50.154;8.198;2023-03-13T10:54:25;11.80;99.90
20728;DHT22;10525;50.154;8.198;2023-03-13T10:57:08;11.80;99.90
20728;DHT22;10525;50.154;8.198;2023-03-13T10:59:39;11.70;99.90
20728;DHT22;10525;50.154;8.198;2023-03-13T11:02:21;11.70;99.90
20728;DHT22;10525;50.154;8.198;2023-03-13T11:04:48;11.70;99.90
20728;DHT22;10525;50.154;8.198;2023-03-13T11:07:21;11.60;99.90
20728;DHT22;10525;50.154;8.198;2023-03-13T11:09:57;11.60;99.90
20728;DHT22;10525;50.154;8.198;2023-03-13T11:12:25;11.50;99.90
20728;DHT22;10525;50.154;8.198;2023-03-13T11:14:56;11.50;99.90
20728;DHT22;10525;50.154;8.198;2023-03-13T11:17:31;11.60;99.90
20728;DHT22;10525;50.154;8.198;2023-03-13T11:20:13;11.50;99.90
20728;DHT22;10525;50.154;8.198;2023-03-13T11:22:50;11.50;99.90
20728;DHT22;10525;50.154;8.198;2023-03-13T11:25:22;11.50;99.90
20728;DHT22;10525;50.154;8.198;2023-03-13T11:28:01;11.40;99.90
20728;DHT22;10525;50.154;8.198;2023-03-13T11:30:41;11.40;99.90
20728;DHT22;10525;50.154;8.198;2023-03-13T11:33:21;11.40;99.90
20728;DHT22;10525;50.154;8.198;2023-03-13T11:35:58;11.40;99.90
20728;DHT22;10525;50.154;8.198;2023-03-13T11:38:31;11.40;99.90
20728;DHT22;10525;50.154;8.198;2023-03-13T11:41:06;11.40;99.90
20728;DHT22;10525;50.154;8.198;2023-03-13T11:43:48;11.40;99.90
20728;DHT22;10525;50.154;8.198;2023-03-13T11:46:30;11.40;99.90
20728;DHT22;10525;50.154;8.198;2023-03-13T11:49:26;11.40;99.90
20728;DHT22;10525;50.154;8.198;2023-03-13T11:52:01;11.40;99.90
20728;DHT22;10525;50.154;8.198;2023-03-13T11:54:45;11.50;99.90
20728;DHT22;10525;50.154;8.198;2023-03-13T11:57:20;11.40;99.90
20728;DHT22;10525;50.154;8.198;2023-03-13T12:00:02;11.40;99.90
20728;DHT22;10525;50.154;8.198;2023-03-13T12:02:39;11.30;99.90
20728;DHT22;10525;50.154;8.198;2023-03-13T12:05:12;11.30;99.90
20728;DHT22;10525;50.154;8.198;2023-03-13T12:07:43;11.30;99.90
20728;DHT22;10525;50.154;8.198;2023-03-13T12:10:15;11.30;99.90
20728;DHT22;10525;50.154;8.198;2023-03-13T12:12:46;11.30;99.90
20728;DHT22;10525;50.154;8.198;2023-03-13T12:15:19;11.30;99.90
20728;DHT22;10525;50.154;8.198;2023-03-13T12:17:51;11.40;99.90
20728;DHT22;10525;50.154;8.198;2023-03-13T12:20:24;11.40;99.90
20728;DHT22;10525;50.154;8.198;2023-03-13T12:22:56;11.40;99.90
20728;DHT22;10525;50.154;8.198;2023-03-13T12:25:27;11.40;99.90
20728;DHT22;10525;50.154;8.198;2023-03-13T12:28:03;11.50;99.90
20728;DHT22;10525;50.154;8.198;2023-03-13T12:30:36;11.60;99.90
20728;DHT22;10525;50.154;8.198;2023-03-13T12:33:12;11.60;99.90
20728;DHT22;10525;50.154;8.198;2023-03-13T12:35:45;11.70;99.90
20728;DHT22;10525;50.154;8.198;2023-03-13T12:38:18;11.70;99.90
20728;DHT22;10525;50.154;8.198;2023-03-13T12:40:55;11.70;99.90
20728;DHT22;10525;50.154;8.198;2023-03-13T12:43:30;11.70;99.90
20728;DHT22;10525;50.154;8.198;2023-03-13T12:46:12;12.00;99.90
20728;DHT22;10525;50.154;8.198;2023-03-13T12:49:03;12.20;99.90
20728;DHT22;10525;50.154;8.198;2023-03-13T12:51:46;12.20;99.90
20728;DHT22;10525;50.154;8.198;2023-03-13T12:54:31;12.40;99.90
20728;DHT22;10525;50.154;8.198;2023-03-13T12:57:09;12.50;99.90
20728;DHT22;10525;50.154;8.198;2023-03-13T12:59:40;12.50;99.90
20728;DHT22;10525;50.154;8.198;2023-03-13T13:02:14;12.60;99.90
20728;DHT22;10525;50.154;8.198;2023-03-13T13:04:44;12.90;99.90
20728;DHT22;10525;50.154;8.198;2023-03-13T13:07:21;13.20;99.90
20728;DHT22;10525;50.154;8.198;2023-03-13T13:10:02;13.40;99.90
20728;DHT22;10525;50.154;8.198;2023-03-13T13:12:30;13.50;99.90
20728;DHT22;10525;50.154;8.198;2023-03-13T13:15:00;13.60;99.90
20728;DHT22;10525;50.154;8.198;2023-03-13T13:17:59;13.70;99.90
20728;DHT22;10525;50.154;8.198;2023-03-13T13:20:38;13.60;99.90
20728;DHT22;10525;50.154;8.198;2023-03-13T13:23:22;13.30;99.90
20728;DHT22;10525;50.154;8.198;2023-03-13T13:25:50;13.20;99.90
20728;DHT22;10525;50.154;8.198;2023-03-13T13:28:33;13.40;99.90
20728;DHT22;10525;50.154;8.198;2023-03-13T13:31:00;13.40;99.90
20728;DHT22;10525;50.154;8.198;2023-03-13T13:33:38;13.40;99.90
20728;DHT22;10525;50.154;8.198;2023-03-13T13:36:39;13.70;99.90
20728;DHT22;10525;50.154;8.198;2023-03-13T13:39:36;14.10;99.90
20728;DHT22;10525;50.154;8.198;2023-03-13T13:42:45;14.30;99.90
20728;DHT22;10525;50.154;8.198;2023-03-13T13:45:21;14.60;99.90
20728;DHT22;10525;50.154;8.198;2023-03-13T13:48:12;14.60;99.90
20728;DHT22;10525;50.154;8.198;2023-03-13T13:50:39;14.80;99.90
20728;DHT22;10525;50.154;8.198;2023-03-13T13:53:31;14.80;99.90
20728;DHT22;10525;50.154;8.198;2023-03-13T13:55:59;14.50;99.90
20728;DHT22;10525;50.154;8.198;2023-03-13T13:58:36;14.40;99.90
20728;DHT22;10525;50.154;8.198;2023-03-13T14:01:05;14.30;99.90
20728;DHT22;10525;50.154;8.198;2023-03-13T14:03:38;14.40;99.90
20728;DHT22;10525;50.154;8.198;2023-03-13T14:06:16;14.30;99.90
20728;DHT22;10525;50.154;8.198;2023-03-13T14:08:44;14.30;99.90
20728;DHT22;10525;50.154;8.198;2023-03-13T14:11:22;14.30;99.90
20728;DHT22;10525;50.154;8.198;2023-03-13T14:14:13;14.30;99.90
20728;DHT22;10525;50.154;8.198;2023-03-13T14:16:43;14.20;99.90
20728;DHT22;10525;50.154;8.198;2023-03-13T14:19:22;14.10;99.90
20728;DHT22;10525;50.154;8.198;2023-03-13T14:21:57;13.90;99.90
20728;DHT22;10525;50.154;8.198;2023-03-13T14:24:24;13.80;99.90
20728;DHT22;10525;50.154;8.198;2023-03-13T14:26:50;13.70;99.90
20728;DHT22;10525;50.154;8.198;2023-03-13T14:29:18;13.60;99.90
20728;DHT22;10525;50.154;8.198;2023-03-13T14:31:51;13.50;99.90
20728;DHT22;10525;50.154;8.198;2023-03-13T14:34:18;13.40;99.90
20728;DHT22;10525;50.154;8.198;2023-03-13T14:36:45;13.30;99.90
20728;DHT22;10525;50.154;8.198;2023-03-13T14:39:18;13.20;99.90
20728;DHT22;10525;50.154;8.198;2023-03-13T14:41:46;13.10;99.90
20728;DHT22;10525;50.154;8.198;2023-03-13T14:44:19;13.00;99.90
20728;DHT22;10525;50.154;8.198;2023-03-13T14:46:46;12.80;99.90
20728;DHT22;10525;50.154;8.198;2023-03-13T14:49:17;12.70;99.90
20728;DHT22;10525;50.154;8.198;2023-03-13T14:51:45;12.50;99.90
20728;DHT22;10525;50.154;8.198;2023-03-13T14:54:28;12.50;99.90
20728;DHT22;10525;50.154;8.198;2023-03-13T14:57:12;12.40;99.90
20728;DHT22;10525;50.154;8.198;2023-03-13T14:59:39;12.40;99.90
20728;DHT22;10525;50.154;8.198;2023-03-13T15:02:20;12.30;99.90
20728;DHT22;10525;50.154;8.198;2023-03-13T15:04:55;12.30;99.90
20728;DHT22;10525;50.154;8.198;2023-03-13T15:07:24;12.20;99.90
20728;DHT22;10525;50.154;8.198;2023-03-13T15:09:53;12.20;99.90
20728;DHT22;10525;50.154;8.198;2023-03-13T15:12:21;12.30;99.90
20728;DHT22;10525;50.154;8.198;2023-03-13T15:14:49;12.30;99.90
20728;DHT22;10525;50.154;8.198;2023-03-13T15:17:18;12.30;99.90
20728;DHT22;10525;50.154;8.198;2023-03-13T15:19:50;12.30;99.90
20728;DHT22;10525;50.154;8.198;2023-03-13T15:22:17;12.30;99.90
20728;DHT22;10525;50.154;8.198;2023-03-13T15:24:45;12.30;99.90
20728;DHT22;10525;50.154;8.198;2023-03-13T15:27:16;12.30;99.90
20728;DHT22;10525;50.154;8.198;2023-03-13T15:29:44;12.40;99.90
20728;DHT22;10525;50.154;8.198;2023-03-13T15:32:23;12.30;99.90
20728;DHT22;10525;50.154;8.198;2023-03-13T15:34:50;12.30;99.90
20728;DHT22;10525;50.154;8.198;2023-03-13T15:37:17;12.30;99.90
20728;DHT22;10525;50.154;8.198;2023-03-13T15:39:45;12.30;99.90
20728;DHT22;10525;50.154;8.198;2023-03-13T15:42:11;12.30;99.90
20728;DHT22;10525;50.154;8.198;2023-03-13T15:44:39;12.40;99.90
20728;DHT22;10525;50.154;8.198;2023-03-13T15:47:09;12.40;99.90
20728;DHT22;10525;50.154;8.198;2023-03-13T15:49:36;12.50;99.90
20728;DHT22;10525;50.154;8.198;2023-03-13T15:52:04;12.50;99.90
20728;DHT22;10525;50.154;8.198;2023-03-13T15:54:31;12.60;99.90
20728;DHT22;10525;50.154;8.198;2023-03-13T15:56:58;12.60;99.90